Time;durP1;ratioP1;P1;durP2;ratioP2;P2;SDS_P1;SDS_P2;PMS_P1;PMS_P2;Temp;Humidity;BMP_temperature;BMP_pressure;BME280_temperature;BME280_humidity;BME280_pressure;Samples;Min_cycle;Max_cycle;Signal;HPM_P1;HPM_P2
2022/08/04 00:02:29;;;;;;;4.50;3.58;;;17.70;99.90;;;;;;4976676;28;20034;-81
2022/08/04 00:05:02;;;;;;;5.28;3.70;;;17.70;99.90;;;;;;4974395;28;20037;-82
2022/08/04 00:07:42;;;;;;;6.60;4.18;;;17.70;99.90;;;;;;4980936;28;20501;-81
2022/08/04 00:10:08;;;;;;;6.10;4.15;;;17.70;99.90;;;;;;4980086;28;20129;-82
2022/08/04 00:12:40;;;;;;;7.07;4.72;;;17.60;99.90;;;;;;4983309;28;20038;-80
2022/08/04 00:15:09;;;;;;;5.97;4.60;;;17.60;99.90;;;;;;4979732;28;20092;-82
2022/08/04 00:18:14;;;;;;;8.40;5.43;;;17.50;99.90;;;;;;4977508;28;20037;-81
2022/08/04 00:20:41;;;;;;;7.47;5.07;;;17.50;99.90;;;;;;4929913;28;20035;-81
2022/08/04 00:23:08;;;;;;;10.98;6.60;;;17.50;99.90;;;;;;4974232;28;20572;-81
2022/08/04 00:25:39;;;;;;;9.70;5.15;;;17.50;99.90;;;;;;4987862;28;20401;-81
2022/08/04 00:28:05;;;;;;;7.20;5.60;;;17.40;99.90;;;;;;4977721;28;20076;-81
2022/08/04 00:30:31;;;;;;;7.57;5.43;;;17.30;99.90;;;;;;4979363;28;20077;-81
2022/08/04 00:32:57;;;;;;;8.73;5.72;;;17.40;99.90;;;;;;4976370;28;20238;-81
2022/08/04 00:35:23;;;;;;;7.35;5.30;;;17.40;99.90;;;;;;4993719;28;20042;-81
2022/08/04 00:37:51;;;;;;;7.63;5.63;;;17.40;99.90;;;;;;4979257;28;20397;-81
2022/08/04 00:40:27;;;;;;;9.38;5.97;;;17.40;99.90;;;;;;4982653;28;20089;-81
2022/08/04 00:43:09;;;;;;;8.85;5.50;;;17.30;99.90;;;;;;4988520;28;20045;-81
2022/08/04 00:45:40;;;;;;;9.95;5.05;;;17.30;99.90;;;;;;4979935;28;20041;-81
2022/08/04 00:48:35;;;;;;;7.70;5.68;;;17.30;99.90;;;;;;4988642;28;20092;-81
2022/08/04 00:51:15;;;;;;;7.70;4.93;;;17.30;99.90;;;;;;4980794;28;20049;-82
2022/08/04 00:53:49;;;;;;;6.75;5.25;;;17.30;99.90;;;;;;4985363;28;20034;-81
2022/08/04 00:56:24;;;;;;;5.65;4.72;;;17.20;99.90;;;;;;4996224;28;20407;-81
2022/08/04 00:59:02;;;;;;;8.65;5.32;;;17.20;99.90;;;;;;4985531;28;20402;-82
2022/08/04 01:02:10;;;;;;;9.55;5.47;;;17.20;99.90;;;;;;4980274;28;20046;-81
2022/08/04 01:05:02;;;;;;;6.93;4.80;;;17.20;99.90;;;;;;4952679;28;20585;-81
2022/08/04 01:08:03;;;;;;;6.28;4.50;;;17.10;99.90;;;;;;5002479;28;20048;-82
2022/08/04 01:10:47;;;;;;;7.55;5.38;;;17.10;99.90;;;;;;4930229;28;20053;-81
2022/08/04 01:13:44;;;;;;;8.38;5.25;;;17.10;99.90;;;;;;4975863;28;20044;-81
2022/08/04 01:16:15;;;;;;;7.82;5.60;;;17.00;99.90;;;;;;4981724;28;20076;-81
2022/08/04 01:18:55;;;;;;;8.77;5.45;;;17.00;99.90;;;;;;4976606;28;20048;-80
2022/08/04 01:21:59;;;;;;;9.25;6.05;;;17.00;99.90;;;;;;4999796;28;20041;-82
2022/08/04 01:25:01;;;;;;;7.40;5.10;;;17.00;99.90;;;;;;4984000;28;20513;-80
2022/08/04 01:27:49;;;;;;;7.65;5.20;;;17.00;99.90;;;;;;4996550;28;20125;-80
2022/08/04 01:30:15;;;;;;;7.15;5.13;;;17.00;99.90;;;;;;4997623;28;20048;-80
2022/08/04 01:32:50;;;;;;;7.72;5.82;;;17.00;99.90;;;;;;5004035;28;20042;-80
2022/08/04 01:35:37;;;;;;;5.85;4.85;;;17.00;99.90;;;;;;4987389;28;20042;-81
2022/08/04 01:38:24;;;;;;;7.88;5.47;;;17.00;99.90;;;;;;4973671;28;20036;-80
2022/08/04 01:40:52;;;;;;;8.55;5.70;;;17.00;99.90;;;;;;4992464;28;20113;-80
2022/08/04 01:43:19;;;;;;;9.50;6.25;;;16.90;99.90;;;;;;4988593;28;20049;-81
2022/08/04 01:45:49;;;;;;;8.15;5.93;;;16.90;99.90;;;;;;4986394;28;20572;-81
2022/08/04 01:48:19;;;;;;;8.35;5.60;;;16.90;99.90;;;;;;4977936;28;20037;-81
2022/08/04 01:50:45;;;;;;;6.70;5.10;;;16.80;99.90;;;;;;4985194;28;20038;-80
2022/08/04 01:53:11;;;;;;;8.45;5.35;;;16.90;99.90;;;;;;4980759;28;20042;-81
2022/08/04 01:55:39;;;;;;;8.70;5.47;;;16.70;99.90;;;;;;4986217;28;20048;-81
2022/08/04 01:58:05;;;;;;;7.30;5.32;;;16.80;99.90;;;;;;4997435;28;20065;-81
2022/08/04 02:00:31;;;;;;;8.57;5.30;;;16.80;99.90;;;;;;4981200;28;20072;-80
2022/08/04 02:02:57;;;;;;;7.88;5.50;;;16.70;99.90;;;;;;4985863;28;20478;-80
2022/08/04 02:05:25;;;;;;;7.72;4.88;;;16.70;99.90;;;;;;5000891;28;20066;-80
2022/08/04 02:08:16;;;;;;;7.32;5.18;;;16.80;99.90;;;;;;4970932;28;20560;-80
2022/08/04 02:10:42;;;;;;;7.15;6.10;;;16.70;99.90;;;;;;4968674;28;20376;-80
2022/08/04 02:13:27;;;;;;;10.75;6.07;;;16.70;99.90;;;;;;5002920;28;20044;-80
2022/08/04 02:16:13;;;;;;;10.35;5.85;;;16.70;99.90;;;;;;4971703;28;20056;-80
2022/08/04 02:19:03;;;;;;;8.30;5.63;;;16.70;99.90;;;;;;4975801;28;20069;-81
2022/08/04 02:21:31;;;;;;;7.68;5.97;;;16.60;99.90;;;;;;4977136;28;20034;-81
2022/08/04 02:24:05;;;;;;;8.05;5.63;;;16.60;99.90;;;;;;4972339;28;20092;-81
2022/08/04 02:26:33;;;;;;;6.88;5.40;;;16.60;99.90;;;;;;4980866;28;20060;-81
2022/08/04 02:29:34;;;;;;;9.75;6.50;;;16.70;99.90;;;;;;4978587;28;20513;-80
2022/08/04 02:32:04;;;;;;;8.60;5.50;;;16.60;99.90;;;;;;4974893;28;20581;-80
2022/08/04 02:34:56;;;;;;;6.68;5.53;;;16.50;99.90;;;;;;4973289;28;20075;-80
2022/08/04 02:37:24;;;;;;;8.35;5.72;;;16.50;99.90;;;;;;4981204;28;20164;-80
2022/08/04 02:39:52;;;;;;;8.38;5.68;;;16.60;99.90;;;;;;4985058;28;20038;-80
2022/08/04 02:42:18;;;;;;;8.32;5.65;;;16.50;99.90;;;;;;4982300;28;20385;-80
2022/08/04 02:44:49;;;;;;;8.90;6.15;;;16.50;99.90;;;;;;4993407;28;20041;-80
2022/08/04 02:47:18;;;;;;;10.02;6.20;;;16.50;99.90;;;;;;4993088;28;20042;-80
2022/08/04 02:49:45;;;;;;;8.02;5.93;;;16.50;99.90;;;;;;4993494;28;20045;-81
2022/08/04 02:52:13;;;;;;;11.00;6.43;;;16.50;99.90;;;;;;4978081;28;20049;-80
2022/08/04 02:54:41;;;;;;;6.93;4.63;;;16.40;99.90;;;;;;4991131;28;20037;-81
2022/08/04 02:57:11;;;;;;;6.30;5.40;;;16.40;99.90;;;;;;4990594;28;20077;-80
2022/08/04 03:00:06;;;;;;;9.98;5.30;;;16.40;99.90;;;;;;5000965;28;20487;-80
2022/08/04 03:02:45;;;;;;;7.25;5.13;;;16.40;99.90;;;;;;4974150;28;20114;-80
2022/08/04 03:05:20;;;;;;;7.57;5.28;;;16.40;99.90;;;;;;4976371;28;20051;-80
2022/08/04 03:07:58;;;;;;;11.93;5.97;;;16.30;99.90;;;;;;4982419;28;20050;-81
2022/08/04 03:10:58;;;;;;;6.63;5.35;;;16.40;99.90;;;;;;4969235;28;20124;-81
2022/08/04 03:13:52;;;;;;;7.18;5.57;;;16.30;99.90;;;;;;4980473;28;20092;-81
2022/08/04 03:16:17;;;;;;;7.88;5.03;;;16.30;99.90;;;;;;4970280;28;20046;-81
2022/08/04 03:19:05;;;;;;;7.85;5.50;;;16.30;99.90;;;;;;4996743;28;20417;-81
2022/08/04 03:21:59;;;;;;;6.30;4.97;;;16.30;99.90;;;;;;4998821;28;20129;-80
2022/08/04 03:24:42;;;;;;;11.63;5.70;;;16.20;99.90;;;;;;4977347;28;20490;-81
2022/08/04 03:27:13;;;;;;;6.93;5.57;;;16.20;99.90;;;;;;4998602;28;20041;-81
2022/08/04 03:29:47;;;;;;;8.13;5.65;;;16.20;99.90;;;;;;4980352;28;20045;-81
2022/08/04 03:32:35;;;;;;;8.75;6.68;;;16.20;99.90;;;;;;4985750;28;20125;-82
2022/08/04 03:35:15;;;;;;;9.77;6.10;;;16.20;99.90;;;;;;4973737;28;20510;-82
2022/08/04 03:38:15;;;;;;;6.88;5.80;;;16.20;99.90;;;;;;4977137;28;20046;-81
2022/08/04 03:40:43;;;;;;;9.07;6.68;;;16.20;99.90;;;;;;4970603;28;20092;-81
2022/08/04 03:43:51;;;;;;;7.60;5.82;;;16.20;99.90;;;;;;4999488;28;20038;-81
2022/08/04 03:46:40;;;;;;;8.20;6.10;;;16.10;99.90;;;;;;4971607;28;20568;-81
2022/08/04 03:49:24;;;;;;;7.60;6.10;;;16.10;99.90;;;;;;4980646;28;20486;-81
2022/08/04 03:55:01;;;;;;;7.90;6.25;;;16.10;99.90;;;;;;5004708;28;20041;-81
2022/08/04 03:57:57;;;;;;;8.20;6.15;;;16.10;99.90;;;;;;4979359;28;20041;-81
2022/08/04 04:00:43;;;;;;;9.18;6.30;;;16.20;99.90;;;;;;4975918;28;20034;-81
2022/08/04 04:03:28;;;;;;;7.30;5.90;;;16.20;99.90;;;;;;4991354;28;20211;-81
2022/08/04 04:06:15;;;;;;;5.57;4.95;;;16.10;99.90;;;;;;4980130;28;20041;-81
2022/08/04 04:09:01;;;;;;;7.75;6.45;;;16.10;99.90;;;;;;4995488;28;20044;-81
2022/08/04 04:11:50;;;;;;;9.52;5.72;;;16.10;99.90;;;;;;5000587;28;20046;-81
2022/08/04 04:14:50;;;;;;;8.18;6.32;;;16.20;99.90;;;;;;4998939;28;20054;-81
2022/08/04 04:17:53;;;;;;;10.88;6.90;;;16.10;99.90;;;;;;4988784;28;20490;-81
2022/08/04 04:20:40;;;;;;;8.30;6.87;;;16.20;99.90;;;;;;4975431;28;20045;-81
2022/08/04 04:23:30;;;;;;;7.55;6.35;;;16.10;99.90;;;;;;5000444;28;20406;-82
2022/08/04 04:26:15;;;;;;;9.50;6.90;;;16.20;99.90;;;;;;4980254;28;20042;-82
2022/08/04 04:29:08;;;;;;;8.50;6.68;;;16.20;99.90;;;;;;4994553;28;20132;-81
2022/08/04 04:31:37;;;;;;;;;;;16.20;99.90;;;;;;4996659;28;20046;-81
2022/08/04 04:34:32;;;;;;;8.15;6.43;;;16.20;99.90;;;;;;4981096;28;19960;-81
2022/08/04 04:37:03;;;;;;;9.07;6.95;;;16.30;99.90;;;;;;4991889;28;20042;-81
2022/08/04 04:40:04;;;;;;;8.63;6.38;;;16.30;99.90;;;;;;4979152;28;20049;-81
2022/08/04 04:42:32;;;;;;;8.73;6.95;;;16.30;99.90;;;;;;4973397;28;20084;-81
2022/08/04 04:45:27;;;;;;;8.02;5.80;;;16.30;99.90;;;;;;4981184;28;20466;-82
2022/08/04 04:48:13;;;;;;;10.13;6.82;;;16.30;99.90;;;;;;4952882;28;20057;-81
2022/08/04 04:51:04;;;;;;;8.77;6.55;;;16.30;99.90;;;;;;5006598;28;20049;-81
2022/08/04 04:54:07;;;;;;;8.93;6.85;;;16.40;99.90;;;;;;4986216;28;20552;-81
2022/08/04 04:56:39;;;;;;;7.35;6.50;;;16.50;99.90;;;;;;4987576;28;20060;-81
2022/08/04 04:59:10;;;;;;;7.82;7.03;;;16.60;99.90;;;;;;4987160;28;20095;-80
2022/08/04 05:01:57;;;;;;;9.35;6.68;;;16.60;99.90;;;;;;4984453;28;20040;-81
2022/08/04 05:05:11;;;;;;;8.25;7.35;;;16.70;99.90;;;;;;4989344;28;20049;-80
2022/08/04 05:08:04;;;;;;;8.88;7.97;;;16.80;99.90;;;;;;4970145;28;20049;-80
2022/08/04 05:10:38;;;;;;;10.43;7.90;;;17.00;99.90;;;;;;4974134;28;20049;-81
2022/08/04 05:13:20;;;;;;;9.98;8.43;;;17.10;99.90;;;;;;4974416;28;20383;-81
2022/08/04 05:15:51;;;;;;;10.93;8.88;;;17.30;99.90;;;;;;4999822;28;20048;-81
2022/08/04 05:18:24;;;;;;;9.15;8.20;;;17.60;99.90;;;;;;4972712;28;20041;-81
2022/08/04 05:21:12;;;;;;;11.20;8.52;;;17.70;99.90;;;;;;4985729;28;20478;-81
2022/08/04 05:23:47;;;;;;;11.35;7.85;;;17.80;99.90;;;;;;5004242;28;20061;-81
2022/08/04 05:26:17;;;;;;;11.30;8.70;;;18.00;99.90;;;;;;5008350;28;20406;-81
2022/08/04 05:28:52;;;;;;;9.50;7.80;;;18.10;99.90;;;;;;4978663;28;20073;-81
2022/08/04 05:31:19;;;;;;;11.55;7.72;;;18.20;99.90;;;;;;4976662;28;20049;-81
2022/08/04 05:33:53;;;;;;;9.68;8.15;;;18.20;99.90;;;;;;4982728;28;20080;-81
2022/08/04 05:36:21;;;;;;;12.90;8.38;;;18.30;99.90;;;;;;4983964;28;20049;-81
2022/08/04 05:38:54;;;;;;;11.73;8.57;;;18.40;99.90;;;;;;4994512;28;20046;-81
2022/08/04 05:41:21;;;;;;;11.20;7.82;;;18.40;99.90;;;;;;4975671;28;20050;-81
2022/08/04 05:43:48;;;;;;;7.90;7.10;;;18.50;99.90;;;;;;4993686;28;20398;-81
2022/08/04 05:46:15;;;;;;;10.13;7.80;;;18.50;99.90;;;;;;4995356;28;20042;-81
2022/08/04 05:48:43;;;;;;;9.77;7.93;;;18.50;99.90;;;;;;4978999;28;20128;-81
2022/08/04 05:51:10;;;;;;;9.63;8.15;;;18.60;99.90;;;;;;4977605;28;20124;-81
2022/08/04 05:53:36;;;;;;;9.50;7.95;;;18.60;99.90;;;;;;4978816;28;20132;-81
2022/08/04 05:56:05;;;;;;;10.02;8.23;;;18.60;99.90;;;;;;4995131;28;20583;-81
2022/08/04 05:58:31;;;;;;;9.65;7.55;;;18.70;99.90;;;;;;4991626;28;20044;-81
2022/08/04 06:01:01;;;;;;;11.30;8.65;;;18.70;99.90;;;;;;4989468;28;20165;-81
2022/08/04 06:03:30;;;;;;;14.00;9.90;;;18.80;99.90;;;;;;4992850;28;20038;-81
2022/08/04 06:05:57;;;;;;;14.68;9.85;;;18.80;99.90;;;;;;4967226;28;20103;-81
2022/08/04 06:08:23;;;;;;;12.43;10.23;;;18.90;99.90;;;;;;4981113;28;20043;-81
2022/08/04 06:10:52;;;;;;;11.73;8.90;;;19.10;99.90;;;;;;4995092;28;20061;-81
2022/08/04 06:13:24;;;;;;;12.57;9.70;;;19.10;99.90;;;;;;4980486;28;20042;-81
2022/08/04 06:15:54;;;;;;;14.23;9.15;;;19.30;99.90;;;;;;4998376;28;20034;-81
2022/08/04 06:18:22;;;;;;;11.50;8.95;;;19.30;99.90;;;;;;4975353;28;20048;-81
2022/08/04 06:20:51;;;;;;;11.52;9.10;;;19.50;99.90;;;;;;4997093;28;20080;-83
2022/08/04 06:23:19;;;;;;;10.10;8.27;;;19.60;99.90;;;;;;4972390;28;20033;-82
2022/08/04 06:25:51;;;;;;;13.13;9.50;;;19.70;99.90;;;;;;4982648;28;20065;-82
2022/08/04 06:28:18;;;;;;;10.98;9.65;;;19.80;99.90;;;;;;4996081;28;20046;-83
2022/08/04 06:30:46;;;;;;;13.60;10.35;;;20.00;99.90;;;;;;4994336;28;20100;-83
2022/08/04 06:33:23;;;;;;;14.10;9.93;;;20.10;99.90;;;;;;4975280;28;20048;-83
2022/08/04 06:36:01;;;;;;;17.10;14.60;;;20.30;99.90;;;;;;4977556;28;20121;-83
2022/08/04 06:38:28;;;;;;;11.80;8.85;;;20.40;99.90;;;;;;4991029;28;20045;-83
2022/08/04 06:40:58;;;;;;;13.43;10.63;;;20.50;99.90;;;;;;5010003;28;20049;-83
2022/08/04 06:43:25;;;;;;;13.93;10.13;;;20.70;99.90;;;;;;4986264;28;20038;-83
2022/08/04 06:45:51;;;;;;;11.23;9.45;;;20.90;99.90;;;;;;4984301;28;20052;-84
2022/08/04 06:48:18;;;;;;;11.45;8.30;;;21.10;99.90;;;;;;5004217;28;20045;-84
2022/08/04 06:50:48;;;;;;;11.68;9.48;;;21.20;99.90;;;;;;4992515;28;20045;-84
2022/08/04 06:53:16;;;;;;;11.63;8.80;;;21.30;99.90;;;;;;5002676;28;20045;-84
2022/08/04 06:55:43;;;;;;;12.73;9.30;;;21.50;99.90;;;;;;4992681;28;20121;-84
2022/08/04 06:58:11;;;;;;;13.07;9.57;;;21.70;99.90;;;;;;4994082;28;20494;-84
2022/08/04 07:00:39;;;;;;;11.18;8.57;;;21.80;99.90;;;;;;5009298;28;20078;-84
2022/08/04 07:03:06;;;;;;;14.00;8.55;;;22.00;99.90;;;;;;4985587;28;20038;-84
2022/08/04 07:05:33;;;;;;;10.18;7.75;;;22.10;99.90;;;;;;4993877;28;20045;-84
2022/08/04 07:07:58;;;;;;;10.63;7.63;;;22.20;99.90;;;;;;4990875;28;20113;-84
2022/08/04 07:10:26;;;;;;;7.78;6.82;;;22.40;99.90;;;;;;5007460;28;20121;-84
2022/08/04 07:12:53;;;;;;;9.63;7.20;;;22.50;99.90;;;;;;5001985;28;20045;-84
2022/08/04 07:15:20;;;;;;;8.90;6.55;;;22.60;99.90;;;;;;4988229;28;20048;-84
2022/08/04 07:17:46;;;;;;;13.30;6.32;;;22.70;99.90;;;;;;4992440;28;20041;-84
2022/08/04 07:20:12;;;;;;;9.63;6.50;;;22.80;99.90;;;;;;4975470;28;20395;-85
2022/08/04 07:22:41;;;;;;;10.55;6.03;;;22.90;99.90;;;;;;4981606;28;20029;-84
2022/08/04 07:25:11;;;;;;;10.27;5.95;;;23.10;99.90;;;;;;4995474;28;20050;-84
2022/08/04 07:27:37;;;;;;;8.93;5.30;;;23.20;99.90;;;;;;4971197;28;20050;-85
2022/08/04 07:30:05;;;;;;;8.50;5.45;;;23.30;99.90;;;;;;4992908;28;20033;-85
2022/08/04 07:32:31;;;;;;;6.05;5.30;;;23.40;99.90;;;;;;4976095;28;20053;-86
2022/08/04 07:34:58;;;;;;;7.40;4.95;;;23.50;99.90;;;;;;4981005;28;20041;-85
2022/08/04 07:37:24;;;;;;;7.72;4.65;;;23.60;99.90;;;;;;4973572;28;20065;-85
2022/08/04 07:39:50;;;;;;;7.95;5.32;;;23.70;99.90;;;;;;4977944;28;20034;-84
2022/08/04 07:42:20;;;;;;;7.97;5.00;;;23.80;99.90;;;;;;4973902;28;20038;-85
2022/08/04 07:44:45;;;;;;;6.47;4.20;;;23.90;99.90;;;;;;4987254;28;20041;-85
2022/08/04 07:47:12;;;;;;;7.57;4.65;;;24.10;99.90;;;;;;4969012;28;20053;-85
2022/08/04 07:49:39;;;;;;;7.07;5.00;;;24.20;99.90;;;;;;4973931;28;20041;-85
2022/08/04 07:52:06;;;;;;;6.82;4.15;;;24.40;99.90;;;;;;4973950;28;20444;-84
2022/08/04 07:54:33;;;;;;;7.38;4.20;;;24.50;99.90;;;;;;4991251;28;20494;-84
2022/08/04 07:56:59;;;;;;;7.85;4.32;;;24.60;99.90;;;;;;4978036;28;20034;-84
2022/08/04 07:59:25;;;;;;;7.65;4.18;;;24.80;99.90;;;;;;4999801;28;20052;-85
2022/08/04 08:01:52;;;;;;;8.25;3.65;;;24.90;99.90;;;;;;4996387;28;20030;-85
2022/08/04 08:04:19;;;;;;;9.73;4.45;;;25.00;99.90;;;;;;4981148;28;20505;-87
2022/08/04 08:06:44;;;;;;;8.13;4.03;;;25.20;99.90;;;;;;4977464;28;20037;-84
2022/08/04 08:17:58;;;;;;;;;;;;;;;;;;;;;
2022/08/04 08:21:10;;;;;;;6.13;4.03;;;26.20;99.90;;;;;;4880646;29;20048;-79
2022/08/04 08:24:10;;;;;;;;;;;;;;;;;;;;;
2022/08/04 08:26:43;;;;;;;10.55;4.50;;;26.90;99.90;;;;;;4891608;29;20084;-80
2022/08/04 08:34:36;;;;;;;;;;;;;;;;;;;;;
2022/08/04 08:37:35;;;;;;;6.45;3.58;;;27.50;99.90;;;;;;4807619;29;20088;-79
2022/08/04 08:40:21;;;;;;;7.50;4.00;;;27.50;99.90;;;;;;4884842;28;20042;-79
2022/08/04 08:43:18;;;;;;;10.20;4.70;;;27.60;99.90;;;;;;4977306;28;20041;-79
2022/08/04 08:46:30;;;;;;;7.82;3.75;;;27.70;99.90;;;;;;4991071;28;20510;-79
2022/08/04 08:49:39;;;;;;;7.25;3.90;;;27.80;99.90;;;;;;4969306;28;20124;-79
2022/08/04 08:52:26;;;;;;;10.38;4.32;;;28.00;99.90;;;;;;4939259;28;20043;-79
2022/08/04 08:55:23;;;;;;;8.10;3.50;;;28.50;99.90;;;;;;4971240;28;20483;-79
2022/08/04 08:58:16;;;;;;;7.00;3.53;;;28.80;99.90;;;;;;4983405;28;20372;-79
2022/08/04 09:01:12;;;;;;;7.60;3.83;;;29.10;99.90;;;;;;4975561;28;20133;-81
2022/08/04 09:04:13;;;;;;;10.75;4.18;;;29.30;99.90;;;;;;4971979;28;20070;-79
2022/08/04 09:07:07;;;;;;;17.27;4.65;;;29.60;99.90;;;;;;4981062;28;20063;-79
2022/08/04 09:10:20;;;;;;;4.65;3.42;;;29.70;99.90;;;;;;4973604;28;20050;-79
2022/08/04 09:13:07;;;;;;;7.43;3.83;;;29.80;99.90;;;;;;4976888;28;20498;-79
2022/08/04 09:16:04;;;;;;;8.27;3.88;;;30.00;99.90;;;;;;4974903;28;20502;-80
2022/08/04 09:19:15;;;;;;;6.13;3.90;;;30.50;99.90;;;;;;4972424;28;20031;-79
2022/08/04 09:22:29;;;;;;;8.20;4.60;;;30.90;99.90;;;;;;4985931;28;20041;-79
2022/08/04 09:25:37;;;;;;;4.38;3.20;;;30.80;94.50;;;;;;4959975;28;20043;-79
2022/08/04 09:29:07;;;;;;;8.32;4.22;;;30.50;94.40;;;;;;4968714;28;20089;-79
2022/08/04 09:32:34;;;;;;;6.43;3.70;;;30.30;93.60;;;;;;4991957;28;20042;-78
2022/08/04 09:36:05;;;;;;;6.85;3.30;;;30.10;92.60;;;;;;4994268;28;20125;-80
2022/08/04 09:39:22;;;;;;;6.47;3.55;;;30.20;93.10;;;;;;4963759;28;20144;-81
2022/08/04 09:42:43;;;;;;;5.40;3.05;;;30.40;92.40;;;;;;4995698;28;20042;-81
2022/08/04 09:45:52;;;;;;;4.55;2.83;;;30.10;90.40;;;;;;4970406;28;20058;-81
2022/08/04 09:48:33;;;;;;;5.05;2.88;;;29.70;90.70;;;;;;4981513;28;20121;-79
2022/08/04 09:51:28;;;;;;;5.88;2.78;;;29.50;91.70;;;;;;4977642;28;20502;-80
2022/08/04 09:54:33;;;;;;;5.03;2.45;;;29.20;91.10;;;;;;4919537;28;20050;-79
2022/08/04 10:27:27;;;;;;;3.78;1.00;;;29.50;87.70;;;;;;5083253;28;20614;-82
2022/08/04 10:30:00;;;;;;;5.85;1.15;;;29.70;88.70;;;;;;5070381;28;20101;-82
2022/08/04 10:32:51;;;;;;;5.60;1.33;;;30.20;87.90;;;;;;5087662;28;20115;-81
2022/08/04 10:35:22;;;;;;;3.38;1.30;;;30.60;85.50;;;;;;5064153;28;20040;-83
2022/08/04 10:38:30;;;;;;;3.80;1.23;;;30.90;85.60;;;;;;5087286;28;20040;-82
2022/08/04 10:41:14;;;;;;;4.95;1.33;;;31.20;81.40;;;;;;5053406;28;20085;-81
2022/08/04 10:43:58;;;;;;;3.33;1.40;;;31.30;81.90;;;;;;5085933;28;20411;-81
2022/08/04 10:46:30;;;;;;;6.00;1.65;;;31.30;83.00;;;;;;5082749;28;20036;-82
2022/08/04 10:48:59;;;;;;;2.57;1.63;;;31.30;81.50;;;;;;5067150;28;20033;-82
2022/08/04 10:51:53;;;;;;;3.08;1.58;;;31.10;81.70;;;;;;5067083;28;20041;-81
2022/08/04 10:54:32;;;;;;;8.75;2.00;;;30.90;79.20;;;;;;5066920;28;20051;-81
2022/08/04 10:57:05;;;;;;;3.65;1.40;;;30.60;79.00;;;;;;5084548;28;20036;-82
2022/08/04 10:59:44;;;;;;;2.75;1.67;;;30.50;80.00;;;;;;5087232;28;20037;-82
2022/08/04 11:02:47;;;;;;;3.33;1.48;;;30.50;80.10;;;;;;5070358;28;20119;-81
2022/08/04 11:05:58;;;;;;;2.50;1.25;;;30.60;79.00;;;;;;5082688;28;20385;-81
2022/08/04 11:08:41;;;;;;;3.83;1.30;;;30.60;77.40;;;;;;5082443;28;20040;-81
2022/08/04 11:11:34;;;;;;;1.58;1.00;;;30.60;77.20;;;;;;5067099;28;20044;-81
2022/08/04 11:14:07;;;;;;;2.45;1.20;;;30.40;77.20;;;;;;5066354;28;20132;-82
2022/08/04 11:16:52;;;;;;;3.33;1.00;;;30.00;77.70;;;;;;5083827;28;20115;-81
2022/08/04 11:19:33;;;;;;;3.33;1.10;;;29.80;77.70;;;;;;5086917;28;20102;-81
2022/08/04 11:22:07;;;;;;;2.88;0.98;;;29.60;79.10;;;;;;5086764;28;20058;-81
2022/08/04 11:24:42;;;;;;;2.90;1.15;;;29.70;80.00;;;;;;5064175;28;20051;-82
2022/08/04 11:27:22;;;;;;;2.95;1.10;;;29.80;79.90;;;;;;5077164;28;20078;-80
2022/08/04 11:30:04;;;;;;;1.23;1.00;;;29.70;79.80;;;;;;5071981;28;20041;-81
2022/08/04 11:32:43;;;;;;;1.90;0.90;;;29.60;78.80;;;;;;5056543;28;20044;-81
2022/08/04 11:35:23;;;;;;;3.90;1.10;;;29.40;77.80;;;;;;5050945;28;20483;-81
2022/08/04 11:38:01;;;;;;;2.28;1.05;;;29.00;75.90;;;;;;5072811;28;20124;-81
2022/08/04 11:40:42;;;;;;;1.45;0.77;;;28.70;76.90;;;;;;5056772;28;20419;-80
2022/08/04 11:43:16;;;;;;;1.10;0.88;;;28.40;76.90;;;;;;5056314;28;20039;-84
2022/08/04 11:46:12;;;;;;;1.75;1.15;;;28.10;77.70;;;;;;5050981;28;20484;-80
2022/08/04 11:48:51;;;;;;;1.40;0.90;;;27.80;77.10;;;;;;5054987;28;20084;-80
2022/08/04 11:51:18;;;;;;;2.20;1.10;;;27.40;78.30;;;;;;5056156;28;20113;-81
2022/08/04 11:53:44;;;;;;;2.15;1.25;;;27.20;78.40;;;;;;5056134;28;20044;-80
2022/08/04 11:56:12;;;;;;;28.13;2.13;;;26.90;78.90;;;;;;5050472;28;20044;-80
2022/08/04 11:58:37;;;;;;;4.53;1.58;;;26.70;79.40;;;;;;5072416;28;20043;-81
2022/08/04 12:01:27;;;;;;;1.27;0.85;;;26.60;80.00;;;;;;5048039;28;20032;-80
2022/08/04 12:04:14;;;;;;;3.33;1.00;;;26.40;80.60;;;;;;5072784;28;20127;-80
2022/08/04 12:07:09;;;;;;;1.25;0.80;;;26.20;81.10;;;;;;5067881;28;20047;-80
2022/08/04 12:10:06;;;;;;;1.90;0.85;;;26.00;82.20;;;;;;5055828;28;20044;-80
2022/08/04 12:12:39;;;;;;;3.65;0.90;;;25.90;82.50;;;;;;5055995;28;20471;-81
2022/08/04 12:15:31;;;;;;;0.80;0.80;;;25.70;82.20;;;;;;5056092;28;20142;-80
2022/08/04 12:18:00;;;;;;;1.45;0.80;;;25.50;82.90;;;;;;5070458;28;20039;-80
2022/08/04 12:20:28;;;;;;;2.15;0.90;;;25.40;83.90;;;;;;5072194;28;20036;-80
2022/08/04 12:22:57;;;;;;;1.02;0.93;;;25.30;85.00;;;;;;5072323;28;20032;-79
2022/08/04 12:25:29;;;;;;;1.50;1.00;;;25.20;88.00;;;;;;5055257;28;20076;-80
2022/08/04 12:28:00;;;;;;;2.55;1.08;;;25.20;89.90;;;;;;5070118;28;20036;-80
2022/08/04 12:30:32;;;;;;;1.65;1.08;;;25.20;90.20;;;;;;5055374;28;20085;-80
2022/08/04 12:33:05;;;;;;;1.55;1.00;;;25.30;90.20;;;;;;5055682;28;20048;-80
2022/08/04 12:36:03;;;;;;;1.15;0.80;;;25.30;89.60;;;;;;5055402;28;20381;-80
2022/08/04 12:38:32;;;;;;;1.90;0.90;;;25.30;89.80;;;;;;5067207;28;20391;-80
2022/08/04 12:41:02;;;;;;;2.25;0.80;;;25.50;90.10;;;;;;5071989;28;20044;-80
2022/08/04 12:43:37;;;;;;;1.60;0.85;;;25.70;90.50;;;;;;5055278;28;20043;-80
2022/08/04 12:46:06;;;;;;;2.53;0.90;;;26.00;91.00;;;;;;5068558;28;20072;-80
2022/08/04 12:48:34;;;;;;;2.30;0.85;;;26.30;90.70;;;;;;5051494;28;20044;-80
2022/08/04 12:51:00;;;;;;;2.55;0.77;;;26.70;89.90;;;;;;5071632;28;20094;-80
2022/08/04 12:53:31;;;;;;;2.00;0.90;;;26.90;89.60;;;;;;5071718;28;20500;-80
2022/08/04 12:55:58;;;;;;;1.52;0.80;;;27.20;88.20;;;;;;5052941;28;20036;-80
2022/08/04 12:58:28;;;;;;;1.90;0.80;;;27.60;87.20;;;;;;5067133;28;20035;-80
2022/08/04 13:01:03;;;;;;;5.95;1.27;;;27.90;85.20;;;;;;5054838;28;20047;-80
2022/08/04 13:03:40;;;;;;;9.82;1.10;;;28.10;82.90;;;;;;5063821;28;20032;-80
2022/08/04 13:06:09;;;;;;;3.70;0.70;;;28.20;82.40;;;;;;5050820;28;20068;-81
2022/08/04 13:08:38;;;;;;;4.43;0.88;;;28.30;81.00;;;;;;5054339;28;20040;-80
2022/08/04 13:11:05;;;;;;;2.25;0.80;;;28.30;80.80;;;;;;5054674;28;20555;-80
2022/08/04 13:13:34;;;;;;;2.17;0.85;;;28.50;80.50;;;;;;5050326;28;20115;-80
2022/08/04 13:16:05;;;;;;;13.10;1.73;;;28.90;79.50;;;;;;5064626;28;20044;-80
2022/08/04 13:18:34;;;;;;;0.73;0.70;;;29.20;78.30;;;;;;5070776;28;20043;-80
2022/08/04 13:21:11;;;;;;;1.58;0.75;;;29.30;76.70;;;;;;5054470;28;20311;-81
2022/08/04 13:23:38;;;;;;;1.30;0.80;;;29.70;76.60;;;;;;5048410;28;20037;-80
2022/08/04 13:26:05;;;;;;;1.25;0.82;;;30.10;75.30;;;;;;5046934;28;20040;-80
2022/08/04 13:28:33;;;;;;;3.72;1.00;;;30.10;74.60;;;;;;5070551;28;20094;-80
2022/08/04 13:31:01;;;;;;;1.70;0.88;;;30.00;74.00;;;;;;5071250;28;20067;-80
2022/08/04 13:33:29;;;;;;;1.30;0.90;;;30.00;73.80;;;;;;5065538;28;20040;-80
2022/08/04 13:36:30;;;;;;;2.05;1.05;;;30.00;71.80;;;;;;5596532;22;20026;-80
2022/08/04 13:39:06;;;;;;;1.67;0.93;;;29.80;71.90;;;;;;5017201;28;20524;-81
2022/08/04 13:41:33;;;;;;;0.93;0.70;;;30.10;72.80;;;;;;5034521;28;20053;-80
2022/08/04 13:44:08;;;;;;;1.52;0.80;;;30.20;72.50;;;;;;5029238;28;20114;-80
2022/08/04 13:46:39;;;;;;;2.42;0.77;;;30.30;72.40;;;;;;5038769;28;20055;-80
2022/08/04 13:49:09;;;;;;;1.60;1.10;;;30.50;72.30;;;;;;5044182;28;20582;-80
2022/08/04 13:51:36;;;;;;;1.83;1.00;;;30.60;70.60;;;;;;5050649;28;20041;-80
2022/08/04 13:54:02;;;;;;;2.08;0.90;;;30.60;70.60;;;;;;5027199;28;20175;-80
2022/08/04 13:56:35;;;;;;;1.38;0.90;;;30.70;70.50;;;;;;5037174;28;20533;-80
2022/08/04 13:59:03;;;;;;;1.73;0.80;;;30.80;69.40;;;;;;5017737;28;20044;-80
2022/08/04 14:01:30;;;;;;;3.35;1.10;;;30.60;69.10;;;;;;5034045;28;20037;-80
2022/08/04 14:04:16;;;;;;;1.85;0.93;;;30.50;69.30;;;;;;5032444;28;20029;-80
2022/08/04 14:06:52;;;;;;;2.42;0.88;;;30.20;69.10;;;;;;5042157;28;20048;-80
2022/08/04 14:09:20;;;;;;;1.02;0.70;;;30.20;68.40;;;;;;5050618;28;20155;-80
2022/08/04 14:11:50;;;;;;;1.02;0.80;;;30.30;69.10;;;;;;5033796;28;20045;-80
2022/08/04 14:14:40;;;;;;;2.88;0.90;;;30.20;68.40;;;;;;5043518;28;20037;-80
2022/08/04 14:17:11;;;;;;;3.85;0.98;;;30.20;69.00;;;;;;5038995;28;20060;-80
2022/08/04 14:19:46;;;;;;;3.03;0.80;;;30.40;69.30;;;;;;5031365;28;20048;-80
2022/08/04 14:22:27;;;;;;;2.10;0.90;;;30.40;68.90;;;;;;5033934;28;20381;-80
2022/08/04 14:24:58;;;;;;;1.02;0.60;;;30.60;69.40;;;;;;5044722;28;20068;-80
2022/08/04 14:27:25;;;;;;;1.02;0.82;;;30.80;68.50;;;;;;5041100;28;20045;-80
2022/08/04 14:29:50;;;;;;;2.78;1.00;;;31.00;67.90;;;;;;5025263;28;20033;-80
2022/08/04 14:32:16;;;;;;;1.58;0.70;;;31.20;67.80;;;;;;5033840;28;20146;-80
2022/08/04 14:34:44;;;;;;;1.63;0.70;;;31.50;68.00;;;;;;5044795;28;20049;-80